Time;durP1;ratioP1;P1;durP2;ratioP2;P2;SDS_P1;SDS_P2;PMS_P1;PMS_P2;Temp;Humidity;BMP_temperature;BMP_pressure;BME280_temperature;BME280_humidity;BME280_pressure;Samples;Min_cycle;Max_cycle;Signal;HPM_P1;HPM_P2
2023/03/27 08:07:41;;;;;;;;;2.50;2.00;;;;;10.90;49.20;102069.22;6250352;22;45624;-72
2023/03/27 08:10:08;;;;;;;;;2.00;2.00;;;;;11.14;51.51;102079.03;6277215;22;45202;-73
2023/03/27 08:12:35;;;;;;;;;3.00;1.50;;;;;11.16;52.88;102054.44;6277162;22;45267;-72
2023/03/27 08:15:01;;;;;;;;;3.50;1.00;;;;;11.39;52.81;102065.09;6275263;22;46787;-72
2023/03/27 08:17:32;;;;;;;;;3.00;1.75;;;;;11.50;53.01;102073.47;6277129;22;45235;-72
2023/03/27 08:19:57;;;;;;;;;1.75;1.75;;;;;11.76;49.61;102088.69;6277784;22;45164;-72
2023/03/27 08:22:23;;;;;;;;;4.75;1.00;;;;;11.70;49.66;102058.38;6276488;22;45426;-73
2023/03/27 08:24:49;;;;;;;;;1.75;1.00;;;;;11.85;48.14;102070.53;6277269;22;45401;-73
2023/03/27 08:27:15;;;;;;;;;2.50;1.00;;;;;12.23;50.75;102112.63;6277097;22;45231;-73
2023/03/27 08:29:42;;;;;;;;;1.25;1.00;;;;;11.97;49.02;102070.09;6277608;22;45676;-72
2023/03/27 08:32:09;;;;;;;;;1.00;1.00;;;;;12.12;50.27;102120.16;6276875;22;45301;-73
2023/03/27 08:34:35;;;;;;;;;0.25;0.25;;;;;11.80;50.05;102072.06;6277177;22;46097;-72
2023/03/27 08:37:01;;;;;;;;;1.00;0.75;;;;;11.87;51.02;102105.03;6276434;22;45231;-73
2023/03/27 08:39:29;;;;;;;;;2.50;2.50;;;;;11.71;50.76;102097.28;6277306;22;45185;-73
2023/03/27 08:41:57;;;;;;;;;2.50;1.00;;;;;11.67;49.23;102125.38;6276163;22;45505;-73
2023/03/27 08:44:27;;;;;;;;;1.25;0.00;;;;;11.38;50.05;102113.59;6276678;22;45421;-73
2023/03/27 08:47:02;;;;;;;;;1.50;1.50;;;;;11.16;49.20;102127.66;6276237;22;45246;-73
2023/03/27 08:49:33;;;;;;;;;2.00;2.00;;;;;11.02;49.22;102137.63;6274948;22;45431;-73
2023/03/27 08:52:04;;;;;;;;;2.75;1.00;;;;;10.88;48.93;102158.19;6276156;22;44732;-73
2023/03/27 08:54:32;;;;;;;;;3.50;2.00;;;;;10.75;51.05;102146.16;6275451;22;46943;-73
2023/03/27 08:56:58;;;;;;;;;1.25;1.00;;;;;10.49;49.47;102114.97;6277734;22;45263;-73
2023/03/27 08:59:29;;;;;;;;;1.75;1.75;;;;;10.59;49.16;102163.91;6276320;22;45213;-73
2023/03/27 09:02:14;;;;;;;;;2.00;2.00;;;;;10.45;49.44;102155.31;6278060;22;45276;-73
2023/03/27 09:05:05;;;;;;;;;1.75;1.00;;;;;10.37;50.36;102131.19;6278042;22;45494;-72
2023/03/27 09:07:39;;;;;;;;;2.00;2.00;;;;;10.90;49.36;102177.69;6276855;22;45299;-73
2023/03/27 09:10:29;;;;;;;;;1.50;1.00;;;;;11.31;49.34;102181.22;6277712;22;45161;-72
2023/03/27 09:13:14;;;;;;;;;2.00;1.00;;;;;11.27;48.91;102099.00;6277547;22;45608;-73
2023/03/27 09:15:43;;;;;;;;;1.50;1.25;;;;;11.95;47.66;102188.38;6277813;22;45257;-74
2023/03/27 09:18:32;;;;;;;;;2.00;1.00;;;;;12.00;48.06;102144.44;6278197;22;45217;-73
2023/03/27 09:21:06;;;;;;;;;1.00;1.00;;;;;12.58;45.92;102188.25;6275733;22;45200;-74
2023/03/27 09:23:38;;;;;;;;;0.00;0.00;;;;;12.77;46.02;102188.09;6277178;22;45181;-72
2023/03/27 09:26:12;;;;;;;;;0.00;0.00;;;;;12.72;45.79;102175.50;6277458;22;45569;-74
2023/03/27 09:28:54;;;;;;;;;1.50;0.00;;;;;13.01;43.71;102189.84;6276230;22;45259;-74
2023/03/27 09:31:33;;;;;;;;;2.50;1.00;;;;;13.11;43.63;102199.06;6277472;22;45283;-73
2023/03/27 09:34:03;;;;;;;;;0.75;0.75;;;;;13.12;43.69;102166.34;6275525;22;46835;-73
2023/03/27 09:36:29;;;;;;;;;4.50;3.00;;;;;13.35;40.77;102191.97;6274407;22;45457;-74
2023/03/27 09:39:04;;;;;;;;;0.50;0.50;;;;;13.33;39.46;102188.38;6278087;22;45270;-73
2023/03/27 09:41:47;;;;;;;;;4.00;3.25;;;;;13.54;42.12;102203.25;6278285;22;45338;-74
2023/03/27 09:44:34;;;;;;;;;2.33;1.33;;;;;13.79;41.99;102205.91;6275691;22;45208;-73
2023/03/27 09:47:05;;;;;;;;;1.00;0.33;;;;;13.82;41.34;102184.75;6300686;22;47934;-74
2023/03/27 09:49:32;;;;;;;;;1.33;0.00;;;;;14.06;40.26;102199.72;6278328;22;45266;-74
2023/03/27 09:51:59;;;;;;;;;1.00;1.00;;;;;14.17;38.43;102190.31;6274796;22;45496;-73
2023/03/27 09:54:27;;;;;;;;;0.00;0.00;;;;;14.36;39.93;102204.19;6278070;22;45315;-73
2023/03/27 09:57:05;;;;;;;;;1.00;1.00;;;;;14.62;40.82;102210.31;6277609;22;45359;-74
2023/03/27 09:59:39;;;;;;;;;1.00;1.00;;;;;14.62;39.05;102197.94;6278126;22;45369;-74
2023/03/27 10:02:21;;;;;;;;;1.00;1.00;;;;;14.94;39.08;102213.97;6277258;22;45597;-74
2023/03/27 10:05:18;;;;;;;;;2.00;0.00;;;;;15.03;37.39;102198.25;6277533;22;45227;-74
2023/03/27 10:07:44;;;;;;;;;2.00;1.00;;;;;15.26;37.90;102214.88;6276758;22;46099;-74
2023/03/27 10:10:16;;;;;;;;;0.67;0.67;;;;;15.36;36.24;102213.38;6277787;22;45302;-73
2023/03/27 10:12:43;;;;;;;;;2.00;2.00;;;;;15.30;38.61;102194.56;6278282;22;45247;-74
2023/03/27 10:15:37;;;;;;;;;2.00;1.00;;;;;15.11;38.62;102188.72;6278013;22;45458;-74
2023/03/27 10:18:07;;;;;;;;;0.00;0.00;;;;;15.14;35.67;102194.13;6275722;22;46529;-73
2023/03/27 10:20:33;;;;;;;;;1.00;1.00;;;;;15.38;38.31;102198.34;6278346;22;45245;-74
2023/03/27 10:23:01;;;;;;;;;1.00;1.00;;;;;15.58;35.68;102207.75;6276548;22;45342;-74
2023/03/27 10:25:33;;;;;;;;;2.00;1.00;;;;;15.45;36.00;102208.28;6277995;22;45302;-73
2023/03/27 10:28:17;;;;;;;;;0.00;0.00;;;;;15.43;35.79;102215.31;6274441;22;46933;-74
2023/03/27 10:30:42;;;;;;;;;1.00;1.00;;;;;15.18;37.22;102181.81;6275285;22;45337;-74
2023/03/27 10:33:08;;;;;;;;;0.00;0.00;;;;;15.21;38.09;102198.78;6277775;22;45239;-74
2023/03/27 10:35:36;;;;;;;;;0.00;0.00;;;;;15.37;37.10;102212.50;6278028;22;45443;-74
2023/03/27 10:38:11;;;;;;;;;3.00;0.00;;;;;15.64;36.60;102229.22;6277248;22;45333;-75
2023/03/27 10:40:38;;;;;;;;;1.00;0.00;;;;;15.83;35.48;102212.00;6277914;22;45294;-74
2023/03/27 10:43:11;;;;;;;;;0.00;0.00;;;;;16.07;35.74;102225.03;6277459;22;45244;-74
2023/03/27 10:45:45;;;;;;;;;1.00;1.00;;;;;16.18;36.37;102203.03;6277333;22;45315;-76
2023/03/27 10:48:25;;;;;;;;;1.00;1.00;;;;;16.49;35.77;102220.66;6277756;22;46347;-76
2023/03/27 10:50:57;;;;;;;;;2.00;0.00;;;;;16.67;33.85;102218.44;6277306;22;45156;-76
2023/03/27 10:53:35;;;;;;;;;0.00;0.00;;;;;16.64;34.17;102201.44;6275988;22;45280;-75
2023/03/27 10:56:04;;;;;;;;;1.33;0.00;;;;;16.93;34.65;102215.44;6277410;22;45341;-77
2023/03/27 10:58:51;;;;;;;;;0.00;0.00;;;;;16.94;34.82;102226.19;6277855;22;46412;-75
2023/03/27 11:01:33;;;;;;;;;0.67;0.00;;;;;17.04;34.79;102202.31;6277742;22;45258;-76
2023/03/27 11:04:02;;;;;;;;;1.00;1.00;;;;;17.12;32.87;102212.28;6277831;22;45545;-73
2023/03/27 11:06:33;;;;;;;;;0.33;0.00;;;;;17.16;32.69;102198.09;6274704;22;45714;-75
2023/03/27 11:09:03;;;;;;;;;0.00;0.00;;;;;17.33;33.02;102227.81;6277751;22;45398;-75
2023/03/27 11:11:39;;;;;;;;;1.00;1.00;;;;;16.98;33.52;102201.31;6277496;22;45235;-75
2023/03/27 11:14:16;;;;;;;;;0.00;0.00;;;;;16.69;32.05;102191.75;6275150;22;45391;-75
2023/03/27 11:16:46;;;;;;;;;0.33;0.33;;;;;16.57;34.28;102205.72;6277483;22;45166;-75
2023/03/27 11:19:32;;;;;;;;;2.00;0.33;;;;;16.41;34.13;102219.59;6277836;22;46070;-74
2023/03/27 11:22:13;;;;;;;;;0.33;0.00;;;;;16.27;34.52;102220.19;6276934;22;45355;-75
2023/03/27 11:25:01;;;;;;;;;1.00;1.00;;;;;16.04;34.35;102227.63;6274607;22;45341;-74
2023/03/27 11:27:26;;;;;;;;;0.67;0.67;;;;;16.01;31.76;102247.97;6277090;22;45345;-75
2023/03/27 11:30:07;;;;;;;;;1.33;0.67;;;;;15.85;35.49;102244.94;6275091;22;45311;-75
2023/03/27 11:33:06;;;;;;;;;0.00;0.00;;;;;15.70;34.75;102251.63;6274739;22;45601;-76
2023/03/27 11:35:47;;;;;;;;;0.33;0.33;;;;;15.51;34.61;102255.50;6273438;22;45625;-76
2023/03/27 11:38:24;;;;;;;;;0.00;0.00;;;;;15.19;35.39;102252.84;6274516;22;45546;-76
2023/03/27 11:40:50;;;;;;;;;3.00;1.00;;;;;14.80;35.01;102237.50;6274280;22;45745;-76
2023/03/27 11:43:18;;;;;;;;;1.00;1.00;;;;;14.65;34.76;102253.03;6273866;22;45353;-75
2023/03/27 11:46:06;;;;;;;;;0.33;0.33;;;;;14.35;35.06;102232.53;6277588;22;45192;-75
2023/03/27 11:48:56;;;;;;;;;0.00;0.00;;;;;14.40;34.61;102264.63;6275369;22;46185;-75
2023/03/27 11:51:48;;;;;;;;;1.00;0.67;;;;;14.36;36.63;102268.03;6276471;22;45597;-75
2023/03/27 11:54:18;;;;;;;;;1.00;0.00;;;;;14.61;35.20;102259.09;6275128;22;45308;-76
2023/03/27 11:56:46;;;;;;;;;1.00;1.00;;;;;14.77;34.96;102225.00;6274467;22;45280;-76
2023/03/27 11:59:14;;;;;;;;;1.00;1.00;;;;;15.39;35.62;102264.97;6277584;22;45421;-75
2023/03/27 12:01:51;;;;;;;;;1.00;1.00;;;;;15.53;33.82;102270.69;6276880;22;46466;-75
2023/03/27 12:05:00;;;;;;;;;1.00;1.00;;;;;15.64;34.72;102266.56;6277351;22;45272;-75
2023/03/27 12:07:34;;;;;;;;;0.00;0.00;;;;;15.74;35.27;102262.41;6259572;22;45352;-76
2023/03/27 12:10:07;;;;;;;;;3.33;1.00;;;;;15.58;33.74;102266.41;6276573;22;45488;-75
2023/03/27 12:13:07;;;;;;;;;1.00;1.00;;;;;15.43;34.08;102269.56;6276943;22;46388;-74
2023/03/27 12:15:38;;;;;;;;;0.33;0.33;;;;;15.36;33.62;102266.66;6277089;22;44636;-75
2023/03/27 12:18:26;;;;;;;;;3.00;2.33;;;;;15.28;34.94;102268.19;6274954;22;45186;-75
2023/03/27 12:21:05;;;;;;;;;0.00;0.00;;;;;15.16;34.57;102274.97;6276958;22;45227;-75
2023/03/27 12:23:47;;;;;;;;;1.00;1.00;;;;;14.95;35.68;102258.34;6276886;22;45332;-75
2023/03/27 12:26:22;;;;;;;;;0.33;0.33;;;;;14.85;35.34;102246.56;6276901;22;45215;-75
2023/03/27 12:28:59;;;;;;;;;1.67;0.67;;;;;15.01;34.86;102274.50;6278149;22;45244;-75
2023/03/27 12:31:51;;;;;;;;;0.67;0.67;;;;;15.11;34.94;102279.25;6275819;22;45316;-75
2023/03/27 12:34:32;;;;;;;;;1.33;0.33;;;;;15.16;33.62;102277.66;6276367;22;47865;-75
2023/03/27 12:36:59;;;;;;;;;0.33;0.33;;;;;14.88;35.02;102230.66;6277596;22;45259;-75
2023/03/27 12:39:27;;;;;;;;;0.00;0.00;;;;;15.25;33.53;102270.78;6278449;22;45156;-80
2023/03/27 12:41:53;;;;;;;;;1.33;0.00;;;;;15.29;35.42;102262.94;6277639;22;45412;-75
2023/03/27 12:44:27;;;;;;;;;1.00;0.00;;;;;15.24;34.31;102253.00;6277923;22;46510;-74
2023/03/27 12:47:24;;;;;;;;;0.33;0.33;;;;;15.28;35.28;102271.75;6275819;22;45663;-74
2023/03/27 12:49:58;;;;;;;;;1.00;1.00;;;;;15.05;34.09;102262.22;6276471;22;45409;-73
2023/03/27 12:52:25;;;;;;;;;1.00;1.00;;;;;14.99;33.77;102253.19;6275682;22;45720;-74
2023/03/27 12:55:06;;;;;;;;;0.67;0.00;;;;;15.09;35.09;102274.75;6278659;22;45295;-74
2023/03/27 12:57:42;;;;;;;;;0.33;0.33;;;;;14.97;35.55;102254.00;6278700;22;45233;-74
2023/03/27 13:00:20;;;;;;;;;0.67;0.67;;;;;14.75;33.43;102253.34;6279078;22;45404;-73
2023/03/27 13:03:13;;;;;;;;;0.00;0.00;;;;;14.76;35.31;102268.47;6276176;22;46869;-74
2023/03/27 13:06:11;;;;;;;;;1.00;1.00;;;;;14.63;34.80;102271.59;6278536;22;45461;-74
2023/03/27 13:09:02;;;;;;;;;5.00;2.00;;;;;14.61;34.99;102270.63;6277230;22;45320;-74
2023/03/27 13:11:40;;;;;;;;;3.00;1.00;;;;;14.66;35.54;102257.50;6275803;22;45279;-73
2023/03/27 13:14:51;;;;;;;;;0.33;0.33;;;;;14.65;35.76;102256.59;6275651;22;45422;-72
2023/03/27 13:17:46;;;;;;;;;0.67;0.67;;;;;14.53;34.75;102266.84;6277592;22;45451;-73
2023/03/27 13:20:44;;;;;;;;;0.00;0.00;;;;;14.43;34.60;102251.41;6276422;22;45709;-73
2023/03/27 13:23:31;;;;;;;;;0.33;0.33;;;;;14.58;35.46;102261.66;6270494;22;45259;-73
2023/03/27 13:26:27;;;;;;;;;3.00;1.00;;;;;14.64;35.33;102262.75;6277966;22;45224;-73
2023/03/27 13:28:55;;;;;;;;;0.33;0.33;;;;;14.74;35.43;102251.53;6274309;22;47536;-73
2023/03/27 13:31:42;;;;;;;;;0.67;0.00;;;;;14.93;35.95;102263.66;6278207;22;45098;-73
2023/03/27 13:34:12;;;;;;;;;1.00;1.00;;;;;14.92;35.56;102242.28;6279086;22;45194;-73
2023/03/27 13:36:45;;;;;;;;;1.00;1.00;;;;;14.91;34.77;102248.50;6278168;22;45370;-73
2023/03/27 13:39:19;;;;;;;;;2.67;1.67;;;;;14.90;35.58;102249.31;6275964;22;46341;-73
2023/03/27 13:41:47;;;;;;;;;1.00;1.00;;;;;14.85;34.73;102258.97;6276695;22;45318;-73
2023/03/27 13:44:25;;;;;;;;;2.00;1.00;;;;;14.63;34.39;102246.75;6278555;22;45327;-73
2023/03/27 13:47:11;;;;;;;;;0.00;0.00;;;;;14.49;35.00;102259.59;6275006;22;46877;-73
2023/03/27 13:49:57;;;;;;;;;1.00;1.00;;;;;14.31;35.53;102228.91;6278206;22;45536;-73
2023/03/27 13:52:46;;;;;;;;;2.00;0.00;;;;;14.44;35.84;102263.84;6277683;22;45257;-73
2023/03/27 13:55:15;;;;;;;;;0.00;0.00;;;;;14.41;35.08;102269.09;6278934;22;45275;-73
2023/03/27 13:58:02;;;;;;;;;1.00;1.00;;;;;14.39;35.21;102269.03;6277899;22;45369;-73
2023/03/27 14:00:28;;;;;;;;;1.00;1.00;;;;;14.36;35.57;102268.91;6276448;22;47566;-73
2023/03/27 14:03:40;;;;;;;;;0.00;0.00;;;;;14.24;33.99;102263.22;6277953;22;45304;-73
2023/03/27 14:06:30;;;;;;;;;2.00;1.00;;;;;14.24;35.23;102272.09;6277768;22;45394;-73
2023/03/27 14:09:04;;;;;;;;;0.00;0.00;;;;;14.20;33.78;102261.28;6277980;22;45313;-74
2023/03/27 14:11:55;;;;;;;;;2.00;0.00;;;;;14.20;34.13;102266.59;6277251;22;46193;-73
2023/03/27 14:14:26;;;;;;;;;1.00;0.00;;;;;14.16;35.01;102267.38;6278113;22;45178;-73
2023/03/27 14:17:03;;;;;;;;;0.00;0.00;;;;;14.20;35.35;102264.88;6277903;22;45210;-73
2023/03/27 14:19:43;;;;;;;;;0.00;0.00;;;;;14.25;35.25;102265.91;6278245;22;45254;-73
2023/03/27 14:22:17;;;;;;;;;1.00;1.00;;;;;14.36;35.11;102265.38;6277358;22;45426;-73
2023/03/27 14:24:49;;;;;;;;;2.00;1.00;;;;;14.27;35.47;102226.97;6277904;22;45305;-74
2023/03/27 14:27:19;;;;;;;;;0.00;0.00;;;;;14.51;34.88;102264.09;6275540;22;45268;-73
2023/03/27 14:29:45;;;;;;;;;1.00;1.00;;;;;14.31;35.77;102226.22;6278017;22;45353;-73
2023/03/27 14:32:14;;;;;;;;;1.00;1.00;;;;;14.47;34.10;102255.97;6277601;22;45461;-73
2023/03/27 14:34:52;;;;;;;;;0.00;0.00;;;;;14.57;35.87;102275.84;6277775;22;45276;-74
2023/03/27 14:37:27;;;;;;;;;1.33;0.00;;;;;14.46;35.23;102272.81;6275256;22;45218;-73
2023/03/27 14:39:54;;;;;;;;;0.00;0.00;;;;;14.24;35.54;102244.59;6275850;22;45464;-73
2023/03/27 14:42:20;;;;;;;;;0.00;0.00;;;;;14.38;35.69;102279.63;6277843;22;45306;-73
2023/03/27 14:44:46;;;;;;;;;0.00;0.00;;;;;14.22;35.40;102252.50;6277468;22;45254;-73
2023/03/27 14:47:14;;;;;;;;;0.00;0.00;;;;;14.27;35.14;102248.25;6278167;22;45543;-73
2023/03/27 14:49:46;;;;;;;;;0.00;0.00;;;;;14.20;35.82;102254.25;6277874;22;45180;-74
2023/03/27 14:52:23;;;;;;;;;0.33;0.33;;;;;14.28;36.38;102278.41;6276388;22;45239;-73
2023/03/27 14:54:52;;;;;;;;;0.00;0.00;;;;;14.05;36.16;102259.94;6277960;22;45414;-74
2023/03/27 14:57:19;;;;;;;;;0.33;0.33;;;;;14.00;35.23;102261.56;6277326;22;45155;-74
2023/03/27 14:59:45;;;;;;;;;0.00;0.00;;;;;14.04;36.05;102255.47;6277766;22;45505;-75
2023/03/27 15:02:20;;;;;;;;;0.00;0.00;;;;;14.02;35.97;102246.53;6275765;22;47573;-74
2023/03/27 15:04:46;;;;;;;;;1.00;1.00;;;;;14.25;36.07;102270.31;6275291;22;45291;-74
2023/03/27 15:07:17;;;;;;;;;2.00;0.00;;;;;14.25;36.08;102273.88;6274630;22;45315;-74
2023/03/27 15:09:44;;;;;;;;;0.33;0.00;;;;;14.13;36.18;102236.25;6277609;22;45443;-74
2023/03/27 15:12:10;;;;;;;;;3.00;0.00;;;;;14.39;36.44;102269.03;6277294;22;45433;-74
2023/03/27 15:14:37;;;;;;;;;0.00;0.00;;;;;14.45;36.17;102278.94;6277785;22;45260;-73
2023/03/27 15:17:09;;;;;;;;;0.00;0.00;;;;;14.42;36.40;102268.22;6277579;22;45306;-73
2023/03/27 15:19:42;;;;;;;;;0.67;0.00;;;;;14.19;35.18;102238.22;6278019;22;45378;-73
2023/03/27 15:22:22;;;;;;;;;2.00;1.00;;;;;14.36;36.12;102282.22;6277310;22;45268;-73
2023/03/27 15:24:59;;;;;;;;;0.67;0.67;;;;;14.30;36.05;102282.03;6275836;22;45344;-73
2023/03/27 15:27:31;;;;;;;;;1.67;0.00;;;;;14.21;35.56;102282.63;6278052;22;45216;-73
2023/03/27 15:30:24;;;;;;;;;1.67;0.67;;;;;14.14;35.54;102285.91;6277708;22;45287;-74
2023/03/27 15:32:53;;;;;;;;;0.00;0.00;;;;;14.04;35.97;102278.50;6276909;22;46004;-74
2023/03/27 15:35:29;;;;;;;;;3.00;0.00;;;;;13.89;35.16;102270.88;6277648;22;45195;-74
2023/03/27 15:37:56;;;;;;;;;0.00;0.00;;;;;13.74;36.31;102276.59;6275176;22;45572;-74
2023/03/27 15:40:37;;;;;;;;;1.67;1.00;;;;;13.60;35.76;102291.16;6277906;22;45464;-74
2023/03/27 15:43:05;;;;;;;;;0.00;0.00;;;;;13.51;36.10;102289.06;6277035;22;45756;-74
2023/03/27 15:46:11;;;;;;;;;3.00;2.00;;;;;13.39;36.40;102281.56;6275704;22;45244;-73
2023/03/27 15:48:44;;;;;;;;;0.00;0.00;;;;;13.33;36.58;102281.34;6276406;22;45155;-73
2023/03/27 15:51:19;;;;;;;;;1.00;1.00;;;;;13.24;36.21;102282.69;6274863;22;46090;-73
2023/03/27 15:53:52;;;;;;;;;1.00;1.00;;;;;13.17;36.57;102277.16;6277661;22;45340;-74
2023/03/27 15:56:25;;;;;;;;;1.67;1.00;;;;;13.25;37.03;102297.78;6276657;22;45301;-74
2023/03/27 15:58:58;;;;;;;;;1.67;1.67;;;;;13.16;37.11;102296.63;6277394;22;45176;-73
2023/03/27 16:01:28;;;;;;;;;2.00;0.00;;;;;13.12;36.87;102289.34;6277175;22;45336;-73
2023/03/27 16:03:57;;;;;;;;;2.67;2.00;;;;;13.05;37.15;102289.06;6274000;22;46453;-73
2023/03/27 16:06:25;;;;;;;;;2.67;2.00;;;;;12.95;37.09;102269.25;6276873;22;45138;-74
2023/03/27 16:08:51;;;;;;;;;7.67;5.33;;;;;13.08;36.90;102283.88;6277044;22;45296;-73
2023/03/27 16:11:35;;;;;;;;;1.00;1.00;;;;;13.09;37.47;102291.91;6274972;22;45847;-73
2023/03/27 16:14:01;;;;;;;;;0.00;0.00;;;;;13.10;37.09;102291.03;6274964;22;45619;-73
2023/03/27 16:16:36;;;;;;;;;0.00;0.00;;;;;13.13;37.29;102288.50;6277573;22;45260;-73
2023/03/27 16:19:09;;;;;;;;;1.00;1.00;;;;;12.92;37.43;102264.72;6278031;22;45370;-74
2023/03/27 16:21:35;;;;;;;;;12.75;12.75;;;;;12.84;37.09;102259.97;6276599;22;45321;-74
2023/03/27 16:24:00;;;;;;;;;8.00;8.00;;;;;12.81;37.26;102250.13;6277345;22;45966;-74
2023/03/27 16:26:30;;;;;;;;;1.00;1.00;;;;;12.87;37.45;102266.28;6277183;22;45306;-74
2023/03/27 16:28:59;;;;;;;;;2.00;2.00;;;;;12.86;37.85;102274.22;6275358;22;45121;-73
2023/03/27 16:31:25;;;;;;;;;8.75;7.25;;;;;12.83;37.61;102267.03;6276887;22;45343;-73
2023/03/27 16:33:50;;;;;;;;;24.25;18.75;;;;;12.79;37.21;102270.38;6277158;22;45286;-74
2023/03/27 16:36:28;;;;;;;;;27.00;23.25;;;;;12.86;38.02;102292.78;6276957;22;45232;-73
2023/03/27 16:38:54;;;;;;;;;29.50;28.50;;;;;12.77;38.22;102290.66;6277495;22;45362;-73
2023/03/27 16:41:19;;;;;;;;;17.25;15.00;;;;;12.65;37.79;102279.56;6277051;22;45436;-73
2023/03/27 16:43:45;;;;;;;;;10.75;8.00;;;;;12.64;37.37;102272.47;6277569;22;47419;-73
2023/03/27 16:46:36;;;;;;;;;7.25;6.00;;;;;12.77;38.33;102301.25;6277154;22;45288;-73
2023/03/27 16:49:02;;;;;;;;;6.00;5.00;;;;;12.53;37.77;102257.00;6269321;22;44827;-73
2023/03/27 16:51:28;;;;;;;;;6.75;5.75;;;;;12.58;38.27;102282.84;6274399;22;45277;-73
2023/03/27 16:53:54;;;;;;;;;8.75;8.75;;;;;12.44;37.86;102272.56;6277175;22;45990;-73
2023/03/27 16:56:20;;;;;;;;;4.00;2.00;;;;;12.57;37.68;102288.97;6274914;22;45307;-73
2023/03/27 16:58:45;;;;;;;;;7.75;6.00;;;;;12.59;38.33;102289.94;6276993;22;45259;-73
2023/03/27 17:01:12;;;;;;;;;10.25;10.25;;;;;12.58;38.26;102294.34;6276660;22;45394;-73
2023/03/27 17:03:37;;;;;;;;;10.00;10.00;;;;;12.25;38.35;102247.03;6276899;22;45423;-73
2023/03/27 17:06:05;;;;;;;;;5.00;4.00;;;;;12.46;38.51;102294.75;6276778;22;45259;-73
2023/03/27 17:08:31;;;;;;;;;4.00;4.00;;;;;12.47;38.58;102293.91;6276497;22;45232;-73
2023/03/27 17:11:02;;;;;;;;;1.33;1.33;;;;;11.99;38.72;102224.78;6276709;22;45213;-73
2023/03/27 17:13:27;;;;;;;;;1.67;1.00;;;;;12.38;38.46;102304.16;6300784;22;46250;-74
2023/03/27 17:15:52;;;;;;;;;2.67;1.67;;;;;12.23;38.87;102280.53;6278318;22;45246;-73
2023/03/27 17:18:18;;;;;;;;;0.00;0.00;;;;;12.18;38.77;102278.53;6276808;22;45220;-74
2023/03/27 17:20:43;;;;;;;;;1.00;1.00;;;;;12.21;38.11;102290.19;6278032;22;45176;-74
2023/03/27 17:23:10;;;;;;;;;1.33;0.67;;;;;12.17;38.58;102298.84;6278028;22;54177;-73
2023/03/27 17:25:35;;;;;;;;;2.00;2.00;;;;;12.16;38.70;102305.00;6278256;22;45254;-73
2023/03/27 17:28:00;;;;;;;;;3.00;3.00;;;;;12.07;38.75;102297.56;6277401;22;45334;-74
2023/03/27 17:30:26;;;;;;;;;3.50;3.50;;;;;11.96;39.48;102300.56;6278253;22;45402;-74
2023/03/27 17:32:51;;;;;;;;;5.25;5.25;;;;;11.89;38.83;102310.03;6277678;22;45345;-74
2023/03/27 17:35:16;;;;;;;;;9.50;9.00;;;;;11.63;39.70;102277.97;6278193;22;45234;-73
2023/03/27 17:37:42;;;;;;;;;2.50;2.00;;;;;11.70;39.70;102305.63;6275505;22;45346;-73
2023/03/27 17:40:08;;;;;;;;;2.75;2.00;;;;;11.68;39.17;102314.34;6277956;22;45371;-74
2023/03/27 17:42:35;;;;;;;;;1.75;1.50;;;;;11.55;39.71;102319.09;6274757;22;47769;-74
2023/03/27 17:45:00;;;;;;;;;3.75;3.75;;;;;11.41;39.36;102307.88;6278070;22;45156;-74
2023/03/27 17:47:26;;;;;;;;;3.50;3.00;;;;;11.31;39.68;102310.94;6279366;22;45218;-74
2023/03/27 17:49:53;;;;;;;;;11.50;8.75;;;;;11.29;40.47;102310.00;6278632;22;45301;-73
2023/03/27 17:52:18;;;;;;;;;14.75;13.00;;;;;11.14;40.37;102301.34;6277514;22;45574;-73
2023/03/27 17:54:44;;;;;;;;;14.00;11.75;;;;;11.00;40.06;102287.47;6276065;22;45241;-73
2023/03/27 17:57:09;;;;;;;;;39.75;34.50;;;;;10.95;40.62;102296.91;6277330;22;45350;-73
2023/03/27 17:59:35;;;;;;;;;9.00;8.25;;;;;10.87;40.28;102298.34;6276180;22;45584;-73
2023/03/27 18:02:00;;;;;;;;;10.25;5.00;;;;;10.94;40.49;102335.69;6277866;22;45475;-73
2023/03/27 18:04:26;;;;;;;;;4.00;2.25;;;;;10.81;40.91;102333.34;6278241;22;45289;-73
2023/03/27 18:06:52;;;;;;;;;2.00;1.00;;;;;10.60;40.93;102312.03;6275204;22;45290;-73
2023/03/27 18:09:17;;;;;;;;;2.00;1.75;;;;;10.74;40.80;102347.97;6278182;22;45337;-73
2023/03/27 18:11:43;;;;;;;;;16.25;14.25;;;;;10.61;41.05;102326.16;6277579;22;45353;-73
2023/03/27 18:14:08;;;;;;;;;4.00;4.00;;;;;10.56;41.23;102343.53;6278074;22;45266;-73
2023/03/27 18:16:33;;;;;;;;;8.25;8.25;;;;;10.48;41.03;102332.59;6277459;22;45297;-73
2023/03/27 18:18:59;;;;;;;;;8.50;6.75;;;;;10.34;41.31;102312.50;6276213;22;45524;-73
2023/03/27 18:21:24;;;;;;;;;15.75;12.75;;;;;10.45;41.08;102343.91;6277266;22;45285;-73
2023/03/27 18:23:49;;;;;;;;;3.00;3.00;;;;;10.38;41.33;102333.84;6275593;22;45349;-73
2023/03/27 18:26:15;;;;;;;;;5.75;3.00;;;;;10.26;41.40;102312.97;6277519;22;45397;-73
2023/03/27 18:28:41;;;;;;;;;4.50;3.50;;;;;10.25;41.61;102318.19;6277863;22;45432;-73
2023/03/27 18:31:10;;;;;;;;;16.75;13.50;;;;;10.24;41.96;102313.72;6277491;22;45204;-73
2023/03/27 18:33:36;;;;;;;;;7.00;7.00;;;;;10.43;41.46;102344.66;6277848;22;45702;-73
2023/03/27 18:36:03;;;;;;;;;6.00;3.00;;;;;10.28;41.85;102324.56;6277641;22;45200;-73
2023/03/27 18:38:29;;;;;;;;;4.50;4.50;;;;;10.29;41.58;102344.88;6277404;22;46133;-74
2023/03/27 18:40:55;;;;;;;;;5.25;3.00;;;;;10.33;41.96;102359.16;6277370;22;45361;-73
2023/03/27 18:43:22;;;;;;;;;8.25;8.25;;;;;10.30;42.24;102362.53;6275823;22;45246;-73
2023/03/27 18:45:55;;;;;;;;;75.00;59.25;;;;;10.16;42.33;102350.34;6277743;22;45171;-73
2023/03/27 18:48:20;;;;;;;;;14.25;13.00;;;;;10.09;42.46;102351.78;6275537;22;47070;-72
2023/03/27 18:50:55;;;;;;;;;41.75;35.75;;;;;10.13;41.72;102366.03;6277215;22;46465;-73
2023/03/27 18:53:21;;;;;;;;;6.00;3.00;;;;;10.11;42.33;102364.13;6277953;22;45236;-72
2023/03/27 18:55:48;;;;;;;;;50.25;43.25;;;;;9.98;42.77;102362.63;6275321;22;45110;-72
2023/03/27 18:58:14;;;;;;;;;32.75;29.75;;;;;9.97;42.03;102366.06;6277737;22;45202;-72
2023/03/27 19:00:40;;;;;;;;;5.00;3.50;;;;;9.91;43.57;102371.94;6277094;22;46272;-72
2023/03/27 19:03:05;;;;;;;;;33.50;27.75;;;;;9.89;43.17;102370.97;6274986;22;45352;-73
2023/03/27 19:05:31;;;;;;;;;68.50;54.00;;;;;9.74;43.57;102354.31;6279294;22;45208;-73
2023/03/27 19:07:58;;;;;;;;;56.50;44.00;;;;;9.77;43.88;102367.66;6276816;22;45277;-72
2023/03/27 19:10:23;;;;;;;;;190.00;161.50;;;;;9.70;43.97;102374.38;6277992;22;46452;-73
2023/03/27 19:12:49;;;;;;;;;5.00;3.00;;;;;9.70;43.40;102376.09;6277842;22;45470;-72
2023/03/27 19:15:15;;;;;;;;;20.75;19.25;;;;;9.77;43.69;102388.78;6276236;22;45247;-74
2023/03/27 19:17:41;;;;;;;;;38.00;33.75;;;;;9.63;43.94;102372.22;6277956;22;45282;-74
2023/03/27 19:20:09;;;;;;;;;11.75;11.75;;;;;9.55;43.66;102369.19;6276243;22;48218;-73
2023/03/27 19:22:35;;;;;;;;;17.75;15.00;;;;;9.66;43.43;102388.22;6277940;22;45862;-73
2023/03/27 19:25:00;;;;;;;;;4.50;4.50;;;;;9.60;43.62;102377.34;6277521;22;45327;-74
2023/03/27 19:27:26;;;;;;;;;14.25;14.25;;;;;9.46;43.99;102360.75;6277373;22;45285;-74
2023/03/27 19:29:52;;;;;;;;;8.00;8.00;;;;;9.55;43.75;102382.38;6275577;22;47050;-74
2023/03/27 19:32:18;;;;;;;;;27.75;19.00;;;;;9.59;44.36;102389.63;6277605;22;45274;-73
2023/03/27 19:34:44;;;;;;;;;13.75;11.75;;;;;9.50;43.64;102381.22;6277535;22;45353;-73
2023/03/27 19:37:10;;;;;;;;;10.50;10.50;;;;;9.50;43.90;102383.88;6276981;22;45289;-73
2023/03/27 19:39:35;;;;;;;;;10.00;10.00;;;;;9.20;44.42;102340.88;6275821;22;45600;-73
2023/03/27 19:42:00;;;;;;;;;4.25;4.00;;;;;9.29;44.72;102362.47;6275384;22;45201;-73
2023/03/27 19:44:26;;;;;;;;;4.50;3.00;;;;;9.34;44.49;102375.94;6278037;22;45223;-73
2023/03/27 19:46:52;;;;;;;;;6.00;6.00;;;;;9.23;44.97;102355.97;6275377;22;46224;-73
2023/03/27 19:49:17;;;;;;;;;3.25;3.25;;;;;9.43;44.09;102401.91;6277526;22;45922;-73
2023/03/27 19:51:43;;;;;;;;;5.00;5.00;;;;;9.16;44.15;102357.38;6276904;22;45235;-74
2023/03/27 19:54:08;;;;;;;;;6.50;6.25;;;;;9.36;44.83;102393.66;6275631;22;45169;-74
2023/03/27 19:56:34;;;;;;;;;4.75;4.00;;;;;9.43;44.26;102408.09;6277117;22;45125;-74